sensor_id;sensor_type;location;lat;lon;timestamp;temperature;humidity
12446;DHT22;6287;50.984;7.022;2024-01-10T00:00:05;-6.70;99.90
12446;DHT22;6287;50.984;7.022;2024-01-10T00:02:35;-6.70;99.90
12446;DHT22;6287;50.984;7.022;2024-01-10T00:05:01;-6.70;99.90
12446;DHT22;6287;50.984;7.022;2024-01-10T00:07:27;-6.80;99.90
12446;DHT22;6287;50.984;7.022;2024-01-10T00:09:52;-6.80;99.90
12446;DHT22;6287;50.984;7.022;2024-01-10T00:12:18;-6.80;99.90
12446;DHT22;6287;50.984;7.022;2024-01-10T00:14:43;-6.80;99.90
12446;DHT22;6287;50.984;7.022;2024-01-10T00:17:09;-6.80;99.90
12446;DHT22;6287;50.984;7.022;2024-01-10T00:19:35;-6.90;99.90
12446;DHT22;6287;50.984;7.022;2024-01-10T00:22:05;-6.80;99.90
12446;DHT22;6287;50.984;7.022;2024-01-10T00:24:30;-6.80;99.90
12446;DHT22;6287;50.984;7.022;2024-01-10T00:26:58;-6.80;99.90
12446;DHT22;6287;50.984;7.022;2024-01-10T00:29:24;-6.80;99.90
12446;DHT22;6287;50.984;7.022;2024-01-10T00:31:49;-7.00;99.90
12446;DHT22;6287;50.984;7.022;2024-01-10T00:34:17;-6.90;99.90
12446;DHT22;6287;50.984;7.022;2024-01-10T00:36:43;-6.80;99.90
12446;DHT22;6287;50.984;7.022;2024-01-10T00:39:08;-6.90;99.90
12446;DHT22;6287;50.984;7.022;2024-01-10T00:41:39;-6.90;99.90
12446;DHT22;6287;50.984;7.022;2024-01-10T00:44:07;-6.90;99.90
12446;DHT22;6287;50.984;7.022;2024-01-10T00:46:35;-6.90;99.90
12446;DHT22;6287;50.984;7.022;2024-01-10T00:49:00;-6.90;99.90
12446;DHT22;6287;50.984;7.022;2024-01-10T00:51:26;-6.90;99.90
12446;DHT22;6287;50.984;7.022;2024-01-10T00:56:22;-7.00;99.90
12446;DHT22;6287;50.984;7.022;2024-01-10T00:58:50;-6.90;99.90
12446;DHT22;6287;50.984;7.022;2024-01-10T01:01:16;-7.00;99.90
12446;DHT22;6287;50.984;7.022;2024-01-10T01:03:44;-7.00;99.90
12446;DHT22;6287;50.984;7.022;2024-01-10T01:06:09;-7.00;99.90
12446;DHT22;6287;50.984;7.022;2024-01-10T01:08:35;-7.10;99.90
12446;DHT22;6287;50.984;7.022;2024-01-10T01:11:00;-7.00;99.90
12446;DHT22;6287;50.984;7.022;2024-01-10T01:13:26;-7.00;99.90
12446;DHT22;6287;50.984;7.022;2024-01-10T01:15:53;-7.00;99.90
12446;DHT22;6287;50.984;7.022;2024-01-10T01:18:19;-7.00;99.90
12446;DHT22;6287;50.984;7.022;2024-01-10T01:20:47;-6.90;99.90
12446;DHT22;6287;50.984;7.022;2024-01-10T01:23:15;-6.90;99.90
12446;DHT22;6287;50.984;7.022;2024-01-10T01:28:09;-7.00;99.90
12446;DHT22;6287;50.984;7.022;2024-01-10T01:30:35;-7.10;99.90
12446;DHT22;6287;50.984;7.022;2024-01-10T01:33:00;-7.00;99.90
12446;DHT22;6287;50.984;7.022;2024-01-10T01:37:54;-7.00;99.90
12446;DHT22;6287;50.984;7.022;2024-01-10T01:42:50;-7.00;99.90
12446;DHT22;6287;50.984;7.022;2024-01-10T01:45:16;-7.10;99.90
12446;DHT22;6287;50.984;7.022;2024-01-10T01:47:44;-7.10;99.90
12446;DHT22;6287;50.984;7.022;2024-01-10T01:50:10;-7.10;99.90
12446;DHT22;6287;50.984;7.022;2024-01-10T01:52:38;-7.10;99.90
12446;DHT22;6287;50.984;7.022;2024-01-10T01:55:05;-7.10;99.90
12446;DHT22;6287;50.984;7.022;2024-01-10T01:57:37;-7.10;99.90
12446;DHT22;6287;50.984;7.022;2024-01-10T02:00:03;-7.10;99.90
12446;DHT22;6287;50.984;7.022;2024-01-10T02:02:30;-7.10;99.90
12446;DHT22;6287;50.984;7.022;2024-01-10T02:07:27;-7.20;99.90
12446;DHT22;6287;50.984;7.022;2024-01-10T02:09:53;-7.20;99.90
12446;DHT22;6287;50.984;7.022;2024-01-10T02:12:19;-7.20;99.90
12446;DHT22;6287;50.984;7.022;2024-01-10T02:14:47;-7.20;99.90
12446;DHT22;6287;50.984;7.022;2024-01-10T02:17:15;-7.20;99.90
12446;DHT22;6287;50.984;7.022;2024-01-10T02:19:41;-7.20;99.90
12446;DHT22;6287;50.984;7.022;2024-01-10T02:22:06;-7.20;99.90
12446;DHT22;6287;50.984;7.022;2024-01-10T02:24:32;-7.20;99.90
12446;DHT22;6287;50.984;7.022;2024-01-10T02:26:57;-7.20;99.90
12446;DHT22;6287;50.984;7.022;2024-01-10T02:29:28;-7.20;99.90
12446;DHT22;6287;50.984;7.022;2024-01-10T02:31:56;-7.20;99.90
12446;DHT22;6287;50.984;7.022;2024-01-10T02:34:21;-7.20;99.90
12446;DHT22;6287;50.984;7.022;2024-01-10T02:36:47;-7.20;99.90
12446;DHT22;6287;50.984;7.022;2024-01-10T02:39:15;-7.30;99.90
12446;DHT22;6287;50.984;7.022;2024-01-10T02:44:06;-7.30;99.90
12446;DHT22;6287;50.984;7.022;2024-01-10T02:46:32;-7.30;99.90
12446;DHT22;6287;50.984;7.022;2024-01-10T02:51:31;-7.30;99.90
12446;DHT22;6287;50.984;7.022;2024-01-10T02:53:56;-7.30;99.90
12446;DHT22;6287;50.984;7.022;2024-01-10T02:56:22;-7.40;99.90
12446;DHT22;6287;50.984;7.022;2024-01-10T02:58:47;-7.30;99.90
12446;DHT22;6287;50.984;7.022;2024-01-10T03:01:15;-7.30;99.90
12446;DHT22;6287;50.984;7.022;2024-01-10T03:03:41;-7.30;99.90
12446;DHT22;6287;50.984;7.022;2024-01-10T03:08:35;-7.30;99.90
12446;DHT22;6287;50.984;7.022;2024-01-10T03:11:00;-7.30;99.90
12446;DHT22;6287;50.984;7.022;2024-01-10T03:13:28;-7.40;99.90
12446;DHT22;6287;50.984;7.022;2024-01-10T03:18:23;-7.40;99.90
12446;DHT22;6287;50.984;7.022;2024-01-10T03:20:49;-7.40;99.90
12446;DHT22;6287;50.984;7.022;2024-01-10T03:23:14;-7.40;99.90
12446;DHT22;6287;50.984;7.022;2024-01-10T03:25:40;-7.40;99.90
12446;DHT22;6287;50.984;7.022;2024-01-10T03:28:06;-7.40;99.90
12446;DHT22;6287;50.984;7.022;2024-01-10T03:30:31;-7.50;99.90
12446;DHT22;6287;50.984;7.022;2024-01-10T03:35:25;-7.50;99.90
12446;DHT22;6287;50.984;7.022;2024-01-10T03:37:53;-7.50;99.90
12446;DHT22;6287;50.984;7.022;2024-01-10T03:40:19;-7.50;99.90
12446;DHT22;6287;50.984;7.022;2024-01-10T03:45:10;-7.50;99.90
12446;DHT22;6287;50.984;7.022;2024-01-10T03:47:36;-7.50;99.90
12446;DHT22;6287;50.984;7.022;2024-01-10T03:50:04;-7.50;99.90
12446;DHT22;6287;50.984;7.022;2024-01-10T03:54:59;-7.60;99.90
12446;DHT22;6287;50.984;7.022;2024-01-10T03:57:26;-7.60;99.90
12446;DHT22;6287;50.984;7.022;2024-01-10T03:59:52;-7.60;99.90
12446;DHT22;6287;50.984;7.022;2024-01-10T04:02:20;-7.60;99.90
12446;DHT22;6287;50.984;7.022;2024-01-10T04:04:46;-7.60;99.90
12446;DHT22;6287;50.984;7.022;2024-01-10T04:07:11;-7.60;99.90
12446;DHT22;6287;50.984;7.022;2024-01-10T04:12:03;-7.60;99.90
12446;DHT22;6287;50.984;7.022;2024-01-10T04:14:29;-7.60;99.90
12446;DHT22;6287;50.984;7.022;2024-01-10T04:16:54;-7.60;99.90
12446;DHT22;6287;50.984;7.022;2024-01-10T04:19:20;-7.60;99.90
12446;DHT22;6287;50.984;7.022;2024-01-10T04:21:46;-7.60;99.90
12446;DHT22;6287;50.984;7.022;2024-01-10T04:26:41;-7.60;99.90
12446;DHT22;6287;50.984;7.022;2024-01-10T04:29:07;-7.70;99.90
12446;DHT22;6287;50.984;7.022;2024-01-10T04:31:32;-7.70;99.90
12446;DHT22;6287;50.984;7.022;2024-01-10T04:33:58;-7.70;99.90
12446;DHT22;6287;50.984;7.022;2024-01-10T04:36:23;-7.60;99.90
12446;DHT22;6287;50.984;7.022;2024-01-10T04:38:49;-7.60;99.90
12446;DHT22;6287;50.984;7.022;2024-01-10T04:41:14;-7.60;99.90
12446;DHT22;6287;50.984;7.022;2024-01-10T04:43:40;-7.60;99.90
12446;DHT22;6287;50.984;7.022;2024-01-10T04:46:08;-7.60;99.90
12446;DHT22;6287;50.984;7.022;2024-01-10T04:48:38;-7.60;99.90
12446;DHT22;6287;50.984;7.022;2024-01-10T04:51:06;-7.60;99.90
12446;DHT22;6287;50.984;7.022;2024-01-10T04:53:36;-7.60;99.90
12446;DHT22;6287;50.984;7.022;2024-01-10T04:56:03;-7.60;99.90
12446;DHT22;6287;50.984;7.022;2024-01-10T04:58:28;-7.50;99.90
12446;DHT22;6287;50.984;7.022;2024-01-10T05:00:58;-7.40;99.90
12446;DHT22;6287;50.984;7.022;2024-01-10T05:03:23;-7.40;99.90
12446;DHT22;6287;50.984;7.022;2024-01-10T05:05:52;-7.40;99.90
12446;DHT22;6287;50.984;7.022;2024-01-10T05:08:17;-7.40;99.90
12446;DHT22;6287;50.984;7.022;2024-01-10T05:10:45;-7.40;99.90
12446;DHT22;6287;50.984;7.022;2024-01-10T05:15:40;-7.40;99.90
12446;DHT22;6287;50.984;7.022;2024-01-10T05:18:08;-7.40;99.90
12446;DHT22;6287;50.984;7.022;2024-01-10T05:20:33;-7.60;99.90
12446;DHT22;6287;50.984;7.022;2024-01-10T05:22:59;-7.50;99.90
12446;DHT22;6287;50.984;7.022;2024-01-10T05:25:26;-7.50;99.90
12446;DHT22;6287;50.984;7.022;2024-01-10T05:27:55;-7.50;99.90
12446;DHT22;6287;50.984;7.022;2024-01-10T05:30:23;-7.50;99.90
12446;DHT22;6287;50.984;7.022;2024-01-10T05:32:49;-7.50;99.90
12446;DHT22;6287;50.984;7.022;2024-01-10T05:35:17;-7.50;99.90
12446;DHT22;6287;50.984;7.022;2024-01-10T05:37:45;-7.60;99.90
12446;DHT22;6287;50.984;7.022;2024-01-10T05:40:11;-7.50;99.90
12446;DHT22;6287;50.984;7.022;2024-01-10T05:42:38;-7.50;99.90
12446;DHT22;6287;50.984;7.022;2024-01-10T05:45:05;-7.50;99.90
12446;DHT22;6287;50.984;7.022;2024-01-10T05:47:31;-7.60;99.90
12446;DHT22;6287;50.984;7.022;2024-01-10T05:50:02;-7.60;99.90
12446;DHT22;6287;50.984;7.022;2024-01-10T05:52:33;-7.60;99.90
12446;DHT22;6287;50.984;7.022;2024-01-10T05:54:59;-7.60;99.90
12446;DHT22;6287;50.984;7.022;2024-01-10T05:57:27;-7.60;99.90
12446;DHT22;6287;50.984;7.022;2024-01-10T05:59:53;-7.60;99.90
12446;DHT22;6287;50.984;7.022;2024-01-10T06:02:23;-7.50;99.90
12446;DHT22;6287;50.984;7.022;2024-01-10T06:04:52;-7.50;99.90
12446;DHT22;6287;50.984;7.022;2024-01-10T06:07:17;-7.60;99.90
12446;DHT22;6287;50.984;7.022;2024-01-10T06:09:43;-7.50;99.90
12446;DHT22;6287;50.984;7.022;2024-01-10T06:12:11;-7.50;99.90
12446;DHT22;6287;50.984;7.022;2024-01-10T06:14:37;-7.60;99.90
12446;DHT22;6287;50.984;7.022;2024-01-10T06:17:04;-7.60;99.90
12446;DHT22;6287;50.984;7.022;2024-01-10T06:19:33;-7.60;99.90
12446;DHT22;6287;50.984;7.022;2024-01-10T06:21:59;-7.60;99.90
12446;DHT22;6287;50.984;7.022;2024-01-10T06:24:27;-7.60;99.90
12446;DHT22;6287;50.984;7.022;2024-01-10T06:26:56;-7.60;99.90
12446;DHT22;6287;50.984;7.022;2024-01-10T06:29:26;-7.60;99.90
12446;DHT22;6287;50.984;7.022;2024-01-10T06:31:52;-7.60;99.90
12446;DHT22;6287;50.984;7.022;2024-01-10T06:34:18;-7.60;99.90
12446;DHT22;6287;50.984;7.022;2024-01-10T06:36:44;-7.60;99.90
12446;DHT22;6287;50.984;7.022;2024-01-10T06:39:10;-7.60;99.90
12446;DHT22;6287;50.984;7.022;2024-01-10T06:41:41;-7.60;99.90
12446;DHT22;6287;50.984;7.022;2024-01-10T06:44:08;-7.60;99.90
12446;DHT22;6287;50.984;7.022;2024-01-10T06:46:33;-7.60;99.90
12446;DHT22;6287;50.984;7.022;2024-01-10T06:48:59;-7.60;99.90
12446;DHT22;6287;50.984;7.022;2024-01-10T06:51:25;-7.60;99.90
12446;DHT22;6287;50.984;7.022;2024-01-10T06:53:52;-7.60;99.90
12446;DHT22;6287;50.984;7.022;2024-01-10T06:56:18;-7.60;99.90
12446;DHT22;6287;50.984;7.022;2024-01-10T06:58:46;-7.50;99.90
12446;DHT22;6287;50.984;7.022;2024-01-10T07:01:14;-7.50;99.90
12446;DHT22;6287;50.984;7.022;2024-01-10T07:03:40;-7.40;99.90
12446;DHT22;6287;50.984;7.022;2024-01-10T07:06:08;-7.40;99.90
12446;DHT22;6287;50.984;7.022;2024-01-10T07:08:34;-7.50;99.90
12446;DHT22;6287;50.984;7.022;2024-01-10T07:11:02;-7.50;99.90
12446;DHT22;6287;50.984;7.022;2024-01-10T07:13:28;-7.50;99.90
12446;DHT22;6287;50.984;7.022;2024-01-10T07:15:53;-7.50;99.90
12446;DHT22;6287;50.984;7.022;2024-01-10T07:18:24;-7.40;99.90
12446;DHT22;6287;50.984;7.022;2024-01-10T07:20:50;-7.40;99.90
12446;DHT22;6287;50.984;7.022;2024-01-10T07:23:16;-7.40;99.90
12446;DHT22;6287;50.984;7.022;2024-01-10T07:25:41;-7.40;99.90
12446;DHT22;6287;50.984;7.022;2024-01-10T07:30:34;-7.50;99.90
12446;DHT22;6287;50.984;7.022;2024-01-10T07:35:27;-7.50;99.90
12446;DHT22;6287;50.984;7.022;2024-01-10T07:37:54;-7.50;99.90
12446;DHT22;6287;50.984;7.022;2024-01-10T07:40:24;-7.40;99.90
12446;DHT22;6287;50.984;7.022;2024-01-10T07:42:50;-7.40;99.90
12446;DHT22;6287;50.984;7.022;2024-01-10T07:45:16;-7.40;99.90
12446;DHT22;6287;50.984;7.022;2024-01-10T07:47:42;-7.40;99.90
12446;DHT22;6287;50.984;7.022;2024-01-10T07:50:10;-7.40;99.90
12446;DHT22;6287;50.984;7.022;2024-01-10T07:52:39;-7.30;99.90
12446;DHT22;6287;50.984;7.022;2024-01-10T07:55:05;-7.30;99.90
12446;DHT22;6287;50.984;7.022;2024-01-10T07:57:38;-7.30;99.90
12446;DHT22;6287;50.984;7.022;2024-01-10T08:00:07;-7.20;99.90
12446;DHT22;6287;50.984;7.022;2024-01-10T08:02:37;-7.20;99.90
12446;DHT22;6287;50.984;7.022;2024-01-10T08:05:03;-7.20;99.90
12446;DHT22;6287;50.984;7.022;2024-01-10T08:07:35;-7.20;99.90
12446;DHT22;6287;50.984;7.022;2024-01-10T08:10:10;-7.20;99.90
12446;DHT22;6287;50.984;7.022;2024-01-10T08:12:38;-7.20;99.90
12446;DHT22;6287;50.984;7.022;2024-01-10T08:15:07;-7.20;99.90
12446;DHT22;6287;50.984;7.022;2024-01-10T08:17:35;-7.10;99.90
12446;DHT22;6287;50.984;7.022;2024-01-10T08:20:07;-7.10;99.90
12446;DHT22;6287;50.984;7.022;2024-01-10T08:22:33;-7.10;99.90
12446;DHT22;6287;50.984;7.022;2024-01-10T08:24:59;-7.10;99.90
12446;DHT22;6287;50.984;7.022;2024-01-10T08:27:25;-7.00;99.90
12446;DHT22;6287;50.984;7.022;2024-01-10T08:29:50;-6.90;99.90
12446;DHT22;6287;50.984;7.022;2024-01-10T08:32:16;-6.80;99.90
12446;DHT22;6287;50.984;7.022;2024-01-10T08:34:47;-6.70;99.90
12446;DHT22;6287;50.984;7.022;2024-01-10T08:37:14;-6.70;99.90
12446;DHT22;6287;50.984;7.022;2024-01-10T08:39:39;-6.60;99.90
12446;DHT22;6287;50.984;7.022;2024-01-10T08:42:07;-6.60;99.90
12446;DHT22;6287;50.984;7.022;2024-01-10T08:44:37;-6.50;99.90
12446;DHT22;6287;50.984;7.022;2024-01-10T08:47:07;-6.50;99.90
12446;DHT22;6287;50.984;7.022;2024-01-10T08:49:37;-6.40;99.90
12446;DHT22;6287;50.984;7.022;2024-01-10T08:52:06;-6.30;99.90
12446;DHT22;6287;50.984;7.022;2024-01-10T08:54:33;-6.40;99.90
12446;DHT22;6287;50.984;7.022;2024-01-10T08:59:26;-6.10;99.90
12446;DHT22;6287;50.984;7.022;2024-01-10T09:01:53;-6.10;99.90
12446;DHT22;6287;50.984;7.022;2024-01-10T09:04:19;-6.00;99.90
12446;DHT22;6287;50.984;7.022;2024-01-10T09:06:45;-6.00;99.90
12446;DHT22;6287;50.984;7.022;2024-01-10T09:09:11;-5.90;99.90
12446;DHT22;6287;50.984;7.022;2024-01-10T09:11:41;-5.90;99.90
12446;DHT22;6287;50.984;7.022;2024-01-10T09:14:06;-5.90;99.90
12446;DHT22;6287;50.984;7.022;2024-01-10T09:16:34;-5.70;99.90
12446;DHT22;6287;50.984;7.022;2024-01-10T09:18:59;-5.60;99.90
12446;DHT22;6287;50.984;7.022;2024-01-10T09:21:25;-5.50;99.90
12446;DHT22;6287;50.984;7.022;2024-01-10T09:23:52;-5.40;99.90
12446;DHT22;6287;50.984;7.022;2024-01-10T09:26:20;-5.30;99.90
12446;DHT22;6287;50.984;7.022;2024-01-10T09:28:48;-5.20;99.90
12446;DHT22;6287;50.984;7.022;2024-01-10T09:31:14;-5.10;99.90
12446;DHT22;6287;50.984;7.022;2024-01-10T09:33:40;-5.10;99.90
12446;DHT22;6287;50.984;7.022;2024-01-10T09:36:08;-5.00;99.90
12446;DHT22;6287;50.984;7.022;2024-01-10T09:38:37;-5.00;99.90
12446;DHT22;6287;50.984;7.022;2024-01-10T09:41:06;-4.90;99.90
12446;DHT22;6287;50.984;7.022;2024-01-10T09:43:34;-4.80;99.90
12446;DHT22;6287;50.984;7.022;2024-01-10T09:46:06;-4.70;99.90
12446;DHT22;6287;50.984;7.022;2024-01-10T09:48:32;-4.70;99.90
12446;DHT22;6287;50.984;7.022;2024-01-10T09:50:58;-4.60;99.90
12446;DHT22;6287;50.984;7.022;2024-01-10T09:53:26;-4.40;99.90
12446;DHT22;6287;50.984;7.022;2024-01-10T09:55:53;-4.40;99.90
12446;DHT22;6287;50.984;7.022;2024-01-10T09:58:23;-4.30;99.90
12446;DHT22;6287;50.984;7.022;2024-01-10T10:00:50;-4.10;99.90
12446;DHT22;6287;50.984;7.022;2024-01-10T10:03:19;-4.00;99.90
12446;DHT22;6287;50.984;7.022;2024-01-10T10:05:47;-3.90;99.90
12446;DHT22;6287;50.984;7.022;2024-01-10T10:08:13;-3.80;99.90
12446;DHT22;6287;50.984;7.022;2024-01-10T10:10:53;-3.70;99.90
12446;DHT22;6287;50.984;7.022;2024-01-10T10:13:26;-3.80;99.90
12446;DHT22;6287;50.984;7.022;2024-01-10T10:16:02;-3.70;99.90
12446;DHT22;6287;50.984;7.022;2024-01-10T10:18:28;-3.70;99.90
12446;DHT22;6287;50.984;7.022;2024-01-10T10:21:26;-3.60;99.90
12446;DHT22;6287;50.984;7.022;2024-01-10T10:24:00;-3.60;99.90
12446;DHT22;6287;50.984;7.022;2024-01-10T10:26:27;-3.50;99.90
12446;DHT22;6287;50.984;7.022;2024-01-10T10:28:56;-3.50;99.90
12446;DHT22;6287;50.984;7.022;2024-01-10T10:31:26;-3.40;99.90
12446;DHT22;6287;50.984;7.022;2024-01-10T10:33:52;-3.30;99.90
12446;DHT22;6287;50.984;7.022;2024-01-10T10:36:19;-3.20;99.90
12446;DHT22;6287;50.984;7.022;2024-01-10T10:38:47;-3.00;99.90
12446;DHT22;6287;50.984;7.022;2024-01-10T10:41:19;-2.70;99.90
12446;DHT22;6287;50.984;7.022;2024-01-10T10:43:47;-2.50;99.90
12446;DHT22;6287;50.984;7.022;2024-01-10T10:46:18;-2.40;99.90
12446;DHT22;6287;50.984;7.022;2024-01-10T10:48:43;-2.30;99.90
12446;DHT22;6287;50.984;7.022;2024-01-10T10:51:19;-2.20;99.90
12446;DHT22;6287;50.984;7.022;2024-01-10T10:53:48;-2.00;99.90
12446;DHT22;6287;50.984;7.022;2024-01-10T10:56:14;-2.00;99.90
12446;DHT22;6287;50.984;7.022;2024-01-10T10:58:41;-2.00;99.90
12446;DHT22;6287;50.984;7.022;2024-01-10T11:01:13;-2.00;99.90
12446;DHT22;6287;50.984;7.022;2024-01-10T11:03:42;-2.00;99.90
12446;DHT22;6287;50.984;7.022;2024-01-10T11:06:14;-2.00;99.90
12446;DHT22;6287;50.984;7.022;2024-01-10T11:08:42;-2.00;99.90
12446;DHT22;6287;50.984;7.022;2024-01-10T11:12:23;-2.00;99.90
12446;DHT22;6287;50.984;7.022;2024-01-10T11:18:19;-2.00;99.90
12446;DHT22;6287;50.984;7.022;2024-01-10T11:23:43;-1.80;99.90
12446;DHT22;6287;50.984;7.022;2024-01-10T11:26:10;-1.80;99.90
12446;DHT22;6287;50.984;7.022;2024-01-10T11:28:40;-1.70;99.90
12446;DHT22;6287;50.984;7.022;2024-01-10T11:31:08;-1.60;99.90
12446;DHT22;6287;50.984;7.022;2024-01-10T11:33:39;-1.50;99.90
12446;DHT22;6287;50.984;7.022;2024-01-10T11:36:16;-1.30;99.90
12446;DHT22;6287;50.984;7.022;2024-01-10T11:39:06;-1.10;99.90
12446;DHT22;6287;50.984;7.022;2024-01-10T11:41:36;-0.90;99.90
12446;DHT22;6287;50.984;7.022;2024-01-10T11:51:42;-0.30;99.90
12446;DHT22;6287;50.984;7.022;2024-01-10T11:56:43;-0.10;99.90
12446;DHT22;6287;50.984;7.022;2024-01-10T11:59:11;0.00;99.90
12446;DHT22;6287;50.984;7.022;2024-01-10T12:01:37;0.00;99.80
12446;DHT22;6287;50.984;7.022;2024-01-10T12:04:04;0.10;99.90
12446;DHT22;6287;50.984;7.022;2024-01-10T12:06:36;0.30;99.90
12446;DHT22;6287;50.984;7.022;2024-01-10T12:09:07;0.30;99.90
12446;DHT22;6287;50.984;7.022;2024-01-10T12:11:39;0.40;99.90
12446;DHT22;6287;50.984;7.022;2024-01-10T12:14:05;0.60;99.90
12446;DHT22;6287;50.984;7.022;2024-01-10T12:16:35;0.70;99.90
12446;DHT22;6287;50.984;7.022;2024-01-10T12:19:00;1.00;99.90
12446;DHT22;6287;50.984;7.022;2024-01-10T12:21:28;1.10;99.90
12446;DHT22;6287;50.984;7.022;2024-01-10T12:23:56;1.30;99.50
12446;DHT22;6287;50.984;7.022;2024-01-10T12:26:21;1.60;98.60
12446;DHT22;6287;50.984;7.022;2024-01-10T12:28:54;1.80;98.50
12446;DHT22;6287;50.984;7.022;2024-01-10T12:31:21;2.00;99.80
12446;DHT22;6287;50.984;7.022;2024-01-10T12:33:51;2.10;97.30
12446;DHT22;6287;50.984;7.022;2024-01-10T12:36:18;2.20;98.00
12446;DHT22;6287;50.984;7.022;2024-01-10T12:38:44;2.30;97.40
12446;DHT22;6287;50.984;7.022;2024-01-10T12:41:18;2.30;97.20
12446;DHT22;6287;50.984;7.022;2024-01-10T12:43:55;2.30;96.00
12446;DHT22;6287;50.984;7.022;2024-01-10T12:46:21;2.30;96.00
12446;DHT22;6287;50.984;7.022;2024-01-10T12:51:26;2.20;96.30
12446;DHT22;6287;50.984;7.022;2024-01-10T12:56:21;2.20;95.60
12446;DHT22;6287;50.984;7.022;2024-01-10T12:58:47;2.10;95.80
12446;DHT22;6287;50.984;7.022;2024-01-10T13:01:13;2.00;96.00
12446;DHT22;6287;50.984;7.022;2024-01-10T13:03:43;2.00;96.30
12446;DHT22;6287;50.984;7.022;2024-01-10T13:06:11;1.90;96.50
12446;DHT22;6287;50.984;7.022;2024-01-10T13:08:41;1.90;95.60
12446;DHT22;6287;50.984;7.022;2024-01-10T13:11:07;1.80;96.00
12446;DHT22;6287;50.984;7.022;2024-01-10T13:13:38;1.80;95.90
12446;DHT22;6287;50.984;7.022;2024-01-10T13:16:06;1.80;96.30
12446;DHT22;6287;50.984;7.022;2024-01-10T13:18:32;1.80;96.40
12446;DHT22;6287;50.984;7.022;2024-01-10T13:20:58;1.80;95.70
12446;DHT22;6287;50.984;7.022;2024-01-10T13:23:23;1.70;95.80
12446;DHT22;6287;50.984;7.022;2024-01-10T13:25:51;1.70;96.10
12446;DHT22;6287;50.984;7.022;2024-01-10T13:28:18;1.70;96.00
12446;DHT22;6287;50.984;7.022;2024-01-10T13:33:10;1.70;95.80
12446;DHT22;6287;50.984;7.022;2024-01-10T13:35:38;1.70;96.00
12446;DHT22;6287;50.984;7.022;2024-01-10T13:38:07;1.80;95.80
12446;DHT22;6287;50.984;7.022;2024-01-10T13:40:33;1.80;95.90
12446;DHT22;6287;50.984;7.022;2024-01-10T13:43:02;1.70;95.70
12446;DHT22;6287;50.984;7.022;2024-01-10T13:45:30;1.70;95.80
12446;DHT22;6287;50.984;7.022;2024-01-10T13:47:58;1.60;96.10
12446;DHT22;6287;50.984;7.022;2024-01-10T13:50:26;1.70;95.60
12446;DHT22;6287;50.984;7.022;2024-01-10T13:52:52;1.70;95.80
12446;DHT22;6287;50.984;7.022;2024-01-10T13:55:20;1.70;96.20
12446;DHT22;6287;50.984;7.022;2024-01-10T13:57:49;1.70;96.10
12446;DHT22;6287;50.984;7.022;2024-01-10T14:00:14;1.70;96.20
12446;DHT22;6287;50.984;7.022;2024-01-10T14:02:41;1.70;96.20
12446;DHT22;6287;50.984;7.022;2024-01-10T14:05:10;1.70;96.30
12446;DHT22;6287;50.984;7.022;2024-01-10T14:07:35;1.80;95.90
12446;DHT22;6287;50.984;7.022;2024-01-10T14:10:01;1.80;95.70
12446;DHT22;6287;50.984;7.022;2024-01-10T14:12:28;1.80;96.20
12446;DHT22;6287;50.984;7.022;2024-01-10T14:14:56;1.90;96.10
12446;DHT22;6287;50.984;7.022;2024-01-10T14:17:23;1.90;96.20
12446;DHT22;6287;50.984;7.022;2024-01-10T14:19:54;1.90;95.70
12446;DHT22;6287;50.984;7.022;2024-01-10T14:22:22;1.80;95.50
12446;DHT22;6287;50.984;7.022;2024-01-10T14:24:49;1.90;96.20
12446;DHT22;6287;50.984;7.022;2024-01-10T14:27:19;1.90;95.80
12446;DHT22;6287;50.984;7.022;2024-01-10T14:29:45;1.80;95.60
12446;DHT22;6287;50.984;7.022;2024-01-10T14:32:12;1.80;97.20
12446;DHT22;6287;50.984;7.022;2024-01-10T14:34:39;1.80;98.40
12446;DHT22;6287;50.984;7.022;2024-01-10T14:37:06;1.70;98.70
12446;DHT22;6287;50.984;7.022;2024-01-10T14:39:35;1.70;99.00
12446;DHT22;6287;50.984;7.022;2024-01-10T14:42:07;1.70;99.60
12446;DHT22;6287;50.984;7.022;2024-01-10T14:44:34;1.60;99.40
12446;DHT22;6287;50.984;7.022;2024-01-10T14:47:02;1.50;99.80
12446;DHT22;6287;50.984;7.022;2024-01-10T14:49:28;1.50;99.90
12446;DHT22;6287;50.984;7.022;2024-01-10T14:51:54;1.40;99.80
12446;DHT22;6287;50.984;7.022;2024-01-10T14:54:22;1.40;99.80
12446;DHT22;6287;50.984;7.022;2024-01-10T14:56:47;1.40;99.80
12446;DHT22;6287;50.984;7.022;2024-01-10T14:59:14;1.40;99.50
12446;DHT22;6287;50.984;7.022;2024-01-10T15:01:45;1.40;99.10
12446;DHT22;6287;50.984;7.022;2024-01-10T15:04:12;1.40;99.40
12446;DHT22;6287;50.984;7.022;2024-01-10T15:06:46;1.40;99.00
12446;DHT22;6287;50.984;7.022;2024-01-10T15:09:14;1.30;99.10
12446;DHT22;6287;50.984;7.022;2024-01-10T15:11:42;1.30;99.10
12446;DHT22;6287;50.984;7.022;2024-01-10T15:14:10;1.30;99.30
12446;DHT22;6287;50.984;7.022;2024-01-10T15:16:36;1.30;99.80
12446;DHT22;6287;50.984;7.022;2024-01-10T15:19:02;1.30;99.90
12446;DHT22;6287;50.984;7.022;2024-01-10T15:21:28;1.30;99.90
12446;DHT22;6287;50.984;7.022;2024-01-10T15:23:54;1.20;99.60
12446;DHT22;6287;50.984;7.022;2024-01-10T15:26:25;1.20;99.90
12446;DHT22;6287;50.984;7.022;2024-01-10T15:28:53;1.10;99.90
12446;DHT22;6287;50.984;7.022;2024-01-10T15:31:19;1.10;99.90
12446;DHT22;6287;50.984;7.022;2024-01-10T15:33:48;1.00;99.90
12446;DHT22;6287;50.984;7.022;2024-01-10T15:36:16;0.90;99.90
12446;DHT22;6287;50.984;7.022;2024-01-10T15:38:42;0.80;99.90
12446;DHT22;6287;50.984;7.022;2024-01-10T15:41:08;0.80;99.90
12446;DHT22;6287;50.984;7.022;2024-01-10T15:43:39;0.70;99.90
12446;DHT22;6287;50.984;7.022;2024-01-10T15:46:16;0.60;99.90
12446;DHT22;6287;50.984;7.022;2024-01-10T15:48:42;0.60;99.90
12446;DHT22;6287;50.984;7.022;2024-01-10T15:51:10;0.50;99.90
12446;DHT22;6287;50.984;7.022;2024-01-10T15:53:38;0.40;99.90
12446;DHT22;6287;50.984;7.022;2024-01-10T15:56:04;0.30;99.90
12446;DHT22;6287;50.984;7.022;2024-01-10T15:58:33;0.20;99.90
12446;DHT22;6287;50.984;7.022;2024-01-10T16:00:59;0.10;99.90
12446;DHT22;6287;50.984;7.022;2024-01-10T16:03:28;0.00;99.90
12446;DHT22;6287;50.984;7.022;2024-01-10T16:05:57;0.00;99.90
12446;DHT22;6287;50.984;7.022;2024-01-10T16:08:22;-0.10;99.90
12446;DHT22;6287;50.984;7.022;2024-01-10T16:10:48;-0.20;99.90
12446;DHT22;6287;50.984;7.022;2024-01-10T16:13:13;-0.30;99.90
12446;DHT22;6287;50.984;7.022;2024-01-10T16:15:41;-0.40;99.90
12446;DHT22;6287;50.984;7.022;2024-01-10T16:18:09;-0.50;99.90
12446;DHT22;6287;50.984;7.022;2024-01-10T16:20:35;-0.60;99.90
12446;DHT22;6287;50.984;7.022;2024-01-10T16:23:04;-0.70;99.90
12446;DHT22;6287;50.984;7.022;2024-01-10T16:25:34;-0.70;99.90
12446;DHT22;6287;50.984;7.022;2024-01-10T16:28:03;-0.80;99.90
12446;DHT22;6287;50.984;7.022;2024-01-10T16:30:28;-0.80;99.90
12446;DHT22;6287;50.984;7.022;2024-01-10T16:32:56;-1.00;99.90
12446;DHT22;6287;50.984;7.022;2024-01-10T16:35:22;-0.90;99.90
12446;DHT22;6287;50.984;7.022;2024-01-10T16:37:47;-1.00;99.90
12446;DHT22;6287;50.984;7.022;2024-01-10T16:40:18;-1.00;99.90
12446;DHT22;6287;50.984;7.022;2024-01-10T16:42:44;-1.10;99.90
12446;DHT22;6287;50.984;7.022;2024-01-10T16:45:14;-1.10;99.90
12446;DHT22;6287;50.984;7.022;2024-01-10T16:50:06;-1.30;99.90
12446;DHT22;6287;50.984;7.022;2024-01-10T16:52:32;-1.30;99.90
12446;DHT22;6287;50.984;7.022;2024-01-10T16:55:00;-1.30;99.90
12446;DHT22;6287;50.984;7.022;2024-01-10T16:57:28;-1.40;99.90
12446;DHT22;6287;50.984;7.022;2024-01-10T16:59:54;-1.40;99.90
12446;DHT22;6287;50.984;7.022;2024-01-10T17:02:19;-1.40;99.90